sensor_id;sensor_type;location;lat;lon;timestamp;temperature;humidity
8953;DHT22;4511;50.890;8.054;2023-09-19T00:00:25;16.40;1.00
8953;DHT22;4511;50.890;8.054;2023-09-19T00:02:53;16.30;1.00
8953;DHT22;4511;50.890;8.054;2023-09-19T00:05:21;16.30;1.00
8953;DHT22;4511;50.890;8.054;2023-09-19T00:07:50;16.20;1.00
8953;DHT22;4511;50.890;8.054;2023-09-19T00:10:19;16.10;1.00
8953;DHT22;4511;50.890;8.054;2023-09-19T00:12:47;16.20;1.00
8953;DHT22;4511;50.890;8.054;2023-09-19T00:15:14;16.20;1.00
8953;DHT22;4511;50.890;8.054;2023-09-19T00:17:43;16.20;1.00
8953;DHT22;4511;50.890;8.054;2023-09-19T00:20:10;16.10;1.00
8953;DHT22;4511;50.890;8.054;2023-09-19T00:22:40;16.00;1.00
8953;DHT22;4511;50.890;8.054;2023-09-19T00:25:08;16.00;1.00
8953;DHT22;4511;50.890;8.054;2023-09-19T00:27:37;16.00;1.00
8953;DHT22;4511;50.890;8.054;2023-09-19T00:30:08;16.00;1.00
8953;DHT22;4511;50.890;8.054;2023-09-19T00:32:40;16.00;1.00
8953;DHT22;4511;50.890;8.054;2023-09-19T00:35:07;16.00;1.00
8953;DHT22;4511;50.890;8.054;2023-09-19T00:37:34;16.00;1.00
8953;DHT22;4511;50.890;8.054;2023-09-19T00:40:03;16.00;1.00
8953;DHT22;4511;50.890;8.054;2023-09-19T00:42:31;15.90;1.00
8953;DHT22;4511;50.890;8.054;2023-09-19T00:44:59;15.90;1.00
8953;DHT22;4511;50.890;8.054;2023-09-19T00:47:29;15.90;1.00
8953;DHT22;4511;50.890;8.054;2023-09-19T00:49:56;15.70;1.00
8953;DHT22;4511;50.890;8.054;2023-09-19T00:52:23;15.70;1.00
8953;DHT22;4511;50.890;8.054;2023-09-19T00:54:50;15.60;1.00
8953;DHT22;4511;50.890;8.054;2023-09-19T00:57:19;15.50;1.00
8953;DHT22;4511;50.890;8.054;2023-09-19T00:59:49;15.50;1.00
8953;DHT22;4511;50.890;8.054;2023-09-19T01:02:17;15.50;1.00
8953;DHT22;4511;50.890;8.054;2023-09-19T01:04:44;15.40;1.00
8953;DHT22;4511;50.890;8.054;2023-09-19T01:07:11;15.40;1.00
8953;DHT22;4511;50.890;8.054;2023-09-19T01:09:40;15.50;1.00
8953;DHT22;4511;50.890;8.054;2023-09-19T01:12:08;15.40;1.00
8953;DHT22;4511;50.890;8.054;2023-09-19T01:14:44;15.30;1.00
8953;DHT22;4511;50.890;8.054;2023-09-19T01:17:26;15.20;1.00
8953;DHT22;4511;50.890;8.054;2023-09-19T01:20:20;15.20;1.00
8953;DHT22;4511;50.890;8.054;2023-09-19T01:23:05;15.10;1.00
8953;DHT22;4511;50.890;8.054;2023-09-19T01:28:45;15.20;1.00
8953;DHT22;4511;50.890;8.054;2023-09-19T01:31:21;15.10;1.00
8953;DHT22;4511;50.890;8.054;2023-09-19T01:33:57;15.10;1.00
8953;DHT22;4511;50.890;8.054;2023-09-19T01:36:26;15.10;1.00
8953;DHT22;4511;50.890;8.054;2023-09-19T01:38:54;15.10;1.00
8953;DHT22;4511;50.890;8.054;2023-09-19T01:41:26;15.20;1.00
8953;DHT22;4511;50.890;8.054;2023-09-19T01:43:56;15.20;1.00
8953;DHT22;4511;50.890;8.054;2023-09-19T01:46:31;15.20;99.90
8953;DHT22;4511;50.890;8.054;2023-09-19T01:49:07;15.10;1.00
8953;DHT22;4511;50.890;8.054;2023-09-19T01:51:44;15.10;99.90
8953;DHT22;4511;50.890;8.054;2023-09-19T01:54:16;15.10;1.00
8953;DHT22;4511;50.890;8.054;2023-09-19T01:56:48;15.20;1.00
8953;DHT22;4511;50.890;8.054;2023-09-19T01:59:22;15.20;1.00
8953;DHT22;4511;50.890;8.054;2023-09-19T02:01:52;15.20;99.90
8953;DHT22;4511;50.890;8.054;2023-09-19T02:04:19;15.30;99.90
8953;DHT22;4511;50.890;8.054;2023-09-19T02:06:46;15.40;99.90
8953;DHT22;4511;50.890;8.054;2023-09-19T02:09:14;15.40;99.90
8953;DHT22;4511;50.890;8.054;2023-09-19T02:11:40;15.40;99.90
8953;DHT22;4511;50.890;8.054;2023-09-19T02:14:08;15.40;99.90
8953;DHT22;4511;50.890;8.054;2023-09-19T02:16:35;15.30;99.90
8953;DHT22;4511;50.890;8.054;2023-09-19T02:19:04;15.30;99.90
8953;DHT22;4511;50.890;8.054;2023-09-19T02:21:31;15.30;99.90
8953;DHT22;4511;50.890;8.054;2023-09-19T02:23:59;15.30;99.90
8953;DHT22;4511;50.890;8.054;2023-09-19T02:26:26;15.30;99.90
8953;DHT22;4511;50.890;8.054;2023-09-19T02:28:53;15.30;99.90
8953;DHT22;4511;50.890;8.054;2023-09-19T02:31:20;15.30;99.90
8953;DHT22;4511;50.890;8.054;2023-09-19T02:33:46;15.40;99.90
8953;DHT22;4511;50.890;8.054;2023-09-19T02:36:15;15.30;99.90
8953;DHT22;4511;50.890;8.054;2023-09-19T02:38:42;15.30;99.90
8953;DHT22;4511;50.890;8.054;2023-09-19T02:41:09;15.50;99.90
8953;DHT22;4511;50.890;8.054;2023-09-19T02:43:37;15.50;99.90
8953;DHT22;4511;50.890;8.054;2023-09-19T02:46:04;15.40;1.00
8953;DHT22;4511;50.890;8.054;2023-09-19T02:48:31;15.40;1.00
8953;DHT22;4511;50.890;8.054;2023-09-19T02:51:00;15.40;99.90
8953;DHT22;4511;50.890;8.054;2023-09-19T02:53:28;15.50;99.90
8953;DHT22;4511;50.890;8.054;2023-09-19T02:55:56;15.40;99.90
8953;DHT22;4511;50.890;8.054;2023-09-19T02:58:24;15.50;99.90
8953;DHT22;4511;50.890;8.054;2023-09-19T03:00:53;15.50;1.00
8953;DHT22;4511;50.890;8.054;2023-09-19T03:03:20;15.40;1.00
8953;DHT22;4511;50.890;8.054;2023-09-19T03:05:47;15.30;99.90
8953;DHT22;4511;50.890;8.054;2023-09-19T03:08:14;15.30;99.90
8953;DHT22;4511;50.890;8.054;2023-09-19T03:10:46;15.30;41.70
8953;DHT22;4511;50.890;8.054;2023-09-19T03:13:13;15.40;99.90
8953;DHT22;4511;50.890;8.054;2023-09-19T03:15:41;15.30;99.90
8953;DHT22;4511;50.890;8.054;2023-09-19T03:18:09;15.30;99.90
8953;DHT22;4511;50.890;8.054;2023-09-19T03:20:36;15.20;99.90
8953;DHT22;4511;50.890;8.054;2023-09-19T03:23:04;15.10;99.90
8953;DHT22;4511;50.890;8.054;2023-09-19T03:25:33;15.20;99.90
8953;DHT22;4511;50.890;8.054;2023-09-19T03:28:02;15.10;99.90
8953;DHT22;4511;50.890;8.054;2023-09-19T03:30:31;15.10;1.00
8953;DHT22;4511;50.890;8.054;2023-09-19T03:32:59;15.10;46.30
8953;DHT22;4511;50.890;8.054;2023-09-19T03:35:26;15.10;9.00
8953;DHT22;4511;50.890;8.054;2023-09-19T03:37:52;15.00;1.00
8953;DHT22;4511;50.890;8.054;2023-09-19T03:40:19;15.10;99.90
8953;DHT22;4511;50.890;8.054;2023-09-19T03:42:47;15.10;99.90
8953;DHT22;4511;50.890;8.054;2023-09-19T03:45:15;14.90;99.90
8953;DHT22;4511;50.890;8.054;2023-09-19T03:47:43;14.80;1.00
8953;DHT22;4511;50.890;8.054;2023-09-19T03:50:12;14.60;99.90
8953;DHT22;4511;50.890;8.054;2023-09-19T03:52:41;14.70;1.00
8953;DHT22;4511;50.890;8.054;2023-09-19T03:55:08;14.70;1.00
8953;DHT22;4511;50.890;8.054;2023-09-19T03:57:35;14.60;1.00
8953;DHT22;4511;50.890;8.054;2023-09-19T04:00:02;14.50;54.00
8953;DHT22;4511;50.890;8.054;2023-09-19T04:02:37;14.40;1.00
8953;DHT22;4511;50.890;8.054;2023-09-19T04:05:05;14.40;1.00
8953;DHT22;4511;50.890;8.054;2023-09-19T04:07:32;14.40;1.00
8953;DHT22;4511;50.890;8.054;2023-09-19T04:09:59;14.40;1.00
8953;DHT22;4511;50.890;8.054;2023-09-19T04:12:26;14.50;1.00
8953;DHT22;4511;50.890;8.054;2023-09-19T04:14:53;14.50;99.90
8953;DHT22;4511;50.890;8.054;2023-09-19T04:17:20;14.50;99.90
8953;DHT22;4511;50.890;8.054;2023-09-19T04:19:50;14.50;99.90
8953;DHT22;4511;50.890;8.054;2023-09-19T04:22:16;14.40;99.90
8953;DHT22;4511;50.890;8.054;2023-09-19T04:24:43;14.20;1.00
8953;DHT22;4511;50.890;8.054;2023-09-19T04:27:10;14.30;1.00
8953;DHT22;4511;50.890;8.054;2023-09-19T04:29:37;14.40;99.90
8953;DHT22;4511;50.890;8.054;2023-09-19T04:32:05;14.40;1.00
8953;DHT22;4511;50.890;8.054;2023-09-19T04:34:33;14.30;1.00
8953;DHT22;4511;50.890;8.054;2023-09-19T04:37:01;14.40;1.00
8953;DHT22;4511;50.890;8.054;2023-09-19T04:39:29;14.30;1.00
8953;DHT22;4511;50.890;8.054;2023-09-19T04:41:56;14.30;99.90
8953;DHT22;4511;50.890;8.054;2023-09-19T04:44:23;14.30;99.90
8953;DHT22;4511;50.890;8.054;2023-09-19T04:46:50;14.10;1.00
8953;DHT22;4511;50.890;8.054;2023-09-19T04:49:16;14.20;1.00
8953;DHT22;4511;50.890;8.054;2023-09-19T04:51:43;14.30;99.90
8953;DHT22;4511;50.890;8.054;2023-09-19T04:54:13;14.30;99.90
8953;DHT22;4511;50.890;8.054;2023-09-19T04:56:40;14.40;99.90
8953;DHT22;4511;50.890;8.054;2023-09-19T04:59:07;14.40;99.90
8953;DHT22;4511;50.890;8.054;2023-09-19T05:01:36;14.30;99.90
8953;DHT22;4511;50.890;8.054;2023-09-19T05:04:03;14.80;1.00
8953;DHT22;4511;50.890;8.054;2023-09-19T05:06:30;14.80;99.90
8953;DHT22;4511;50.890;8.054;2023-09-19T05:08:57;14.80;99.90
8953;DHT22;4511;50.890;8.054;2023-09-19T05:11:25;14.70;99.90
8953;DHT22;4511;50.890;8.054;2023-09-19T05:13:52;14.60;1.00
8953;DHT22;4511;50.890;8.054;2023-09-19T05:16:20;14.60;1.00
8953;DHT22;4511;50.890;8.054;2023-09-19T05:18:47;14.60;1.00
8953;DHT22;4511;50.890;8.054;2023-09-19T05:21:15;14.50;1.00
8953;DHT22;4511;50.890;8.054;2023-09-19T05:23:42;14.50;1.00
8953;DHT22;4511;50.890;8.054;2023-09-19T05:26:09;14.50;1.00
8953;DHT22;4511;50.890;8.054;2023-09-19T05:28:38;14.40;1.00
8953;DHT22;4511;50.890;8.054;2023-09-19T05:31:04;14.50;1.00
8953;DHT22;4511;50.890;8.054;2023-09-19T05:33:31;14.40;1.00
8953;DHT22;4511;50.890;8.054;2023-09-19T05:35:58;14.40;1.00
8953;DHT22;4511;50.890;8.054;2023-09-19T05:38:25;14.40;1.00
8953;DHT22;4511;50.890;8.054;2023-09-19T05:40:53;14.40;1.00
8953;DHT22;4511;50.890;8.054;2023-09-19T05:43:19;14.50;1.00
8953;DHT22;4511;50.890;8.054;2023-09-19T05:45:47;14.50;1.00
8953;DHT22;4511;50.890;8.054;2023-09-19T05:48:17;14.50;1.00
8953;DHT22;4511;50.890;8.054;2023-09-19T05:50:46;14.40;1.00
8953;DHT22;4511;50.890;8.054;2023-09-19T05:53:14;14.40;1.00
8953;DHT22;4511;50.890;8.054;2023-09-19T05:55:41;14.40;99.90
8953;DHT22;4511;50.890;8.054;2023-09-19T05:58:08;14.40;99.90
8953;DHT22;4511;50.890;8.054;2023-09-19T06:00:35;14.30;1.00
8953;DHT22;4511;50.890;8.054;2023-09-19T06:03:04;14.30;1.00
8953;DHT22;4511;50.890;8.054;2023-09-19T06:05:30;14.20;1.00
8953;DHT22;4511;50.890;8.054;2023-09-19T06:07:57;14.20;1.00
8953;DHT22;4511;50.890;8.054;2023-09-19T06:10:26;14.30;1.00
8953;DHT22;4511;50.890;8.054;2023-09-19T06:12:53;14.30;1.00
8953;DHT22;4511;50.890;8.054;2023-09-19T06:15:20;14.30;1.00
8953;DHT22;4511;50.890;8.054;2023-09-19T06:17:51;14.30;99.90
8953;DHT22;4511;50.890;8.054;2023-09-19T06:20:22;14.30;99.90
8953;DHT22;4511;50.890;8.054;2023-09-19T06:22:49;14.20;99.90
8953;DHT22;4511;50.890;8.054;2023-09-19T06:25:17;14.20;1.00
8953;DHT22;4511;50.890;8.054;2023-09-19T06:27:45;14.30;99.90
8953;DHT22;4511;50.890;8.054;2023-09-19T06:30:12;14.40;1.00
8953;DHT22;4511;50.890;8.054;2023-09-19T06:32:39;14.20;1.00
8953;DHT22;4511;50.890;8.054;2023-09-19T06:35:09;14.30;1.00
8953;DHT22;4511;50.890;8.054;2023-09-19T06:37:38;14.40;1.00
8953;DHT22;4511;50.890;8.054;2023-09-19T06:40:07;14.30;1.00
8953;DHT22;4511;50.890;8.054;2023-09-19T06:42:35;14.40;1.00
8953;DHT22;4511;50.890;8.054;2023-09-19T06:45:04;14.50;99.90
8953;DHT22;4511;50.890;8.054;2023-09-19T06:47:31;14.60;99.90
8953;DHT22;4511;50.890;8.054;2023-09-19T06:49:57;14.70;99.90
8953;DHT22;4511;50.890;8.054;2023-09-19T06:52:24;14.60;99.90
8953;DHT22;4511;50.890;8.054;2023-09-19T06:54:52;14.50;99.90
8953;DHT22;4511;50.890;8.054;2023-09-19T06:57:19;14.70;1.00
8953;DHT22;4511;50.890;8.054;2023-09-19T06:59:46;14.60;1.00
8953;DHT22;4511;50.890;8.054;2023-09-19T07:02:13;14.70;99.90
8953;DHT22;4511;50.890;8.054;2023-09-19T07:04:40;14.80;99.90
8953;DHT22;4511;50.890;8.054;2023-09-19T07:07:07;15.00;1.00
8953;DHT22;4511;50.890;8.054;2023-09-19T07:09:34;15.00;99.90
8953;DHT22;4511;50.890;8.054;2023-09-19T07:12:02;15.00;1.00
8953;DHT22;4511;50.890;8.054;2023-09-19T07:14:29;14.90;1.00
8953;DHT22;4511;50.890;8.054;2023-09-19T07:16:56;15.00;99.90
8953;DHT22;4511;50.890;8.054;2023-09-19T07:19:25;14.70;1.00
8953;DHT22;4511;50.890;8.054;2023-09-19T07:21:54;14.80;99.90
8953;DHT22;4511;50.890;8.054;2023-09-19T07:24:20;14.80;99.90
8953;DHT22;4511;50.890;8.054;2023-09-19T07:26:49;14.70;95.70
8953;DHT22;4511;50.890;8.054;2023-09-19T07:29:17;14.70;1.00
8953;DHT22;4511;50.890;8.054;2023-09-19T07:31:44;14.80;1.00
8953;DHT22;4511;50.890;8.054;2023-09-19T07:34:12;14.90;99.90
8953;DHT22;4511;50.890;8.054;2023-09-19T07:36:39;14.80;1.00
8953;DHT22;4511;50.890;8.054;2023-09-19T07:39:07;15.00;99.90
8953;DHT22;4511;50.890;8.054;2023-09-19T07:41:34;15.20;1.00
8953;DHT22;4511;50.890;8.054;2023-09-19T07:44:01;15.30;1.00
8953;DHT22;4511;50.890;8.054;2023-09-19T07:46:29;15.20;1.00
8953;DHT22;4511;50.890;8.054;2023-09-19T07:48:56;15.30;99.90
8953;DHT22;4511;50.890;8.054;2023-09-19T07:51:23;15.40;1.00
8953;DHT22;4511;50.890;8.054;2023-09-19T07:53:50;15.30;1.00
8953;DHT22;4511;50.890;8.054;2023-09-19T07:56:18;15.30;81.30
8953;DHT22;4511;50.890;8.054;2023-09-19T07:58:45;15.50;1.00
8953;DHT22;4511;50.890;8.054;2023-09-19T08:01:12;15.60;99.90
8953;DHT22;4511;50.890;8.054;2023-09-19T08:03:42;15.60;40.70
8953;DHT22;4511;50.890;8.054;2023-09-19T08:06:10;15.60;99.90
8953;DHT22;4511;50.890;8.054;2023-09-19T08:08:39;15.60;93.90
8953;DHT22;4511;50.890;8.054;2023-09-19T08:11:06;15.80;99.90
8953;DHT22;4511;50.890;8.054;2023-09-19T08:13:37;15.70;99.90
8953;DHT22;4511;50.890;8.054;2023-09-19T08:16:06;15.70;1.00
8953;DHT22;4511;50.890;8.054;2023-09-19T08:18:33;15.60;1.00
8953;DHT22;4511;50.890;8.054;2023-09-19T08:21:01;15.60;99.90
8953;DHT22;4511;50.890;8.054;2023-09-19T08:23:28;15.90;99.90
8953;DHT22;4511;50.890;8.054;2023-09-19T08:25:57;15.60;36.20
8953;DHT22;4511;50.890;8.054;2023-09-19T08:28:27;15.80;70.40
8953;DHT22;4511;50.890;8.054;2023-09-19T08:30:55;15.30;1.00
8953;DHT22;4511;50.890;8.054;2023-09-19T08:33:23;15.30;99.90
8953;DHT22;4511;50.890;8.054;2023-09-19T08:35:50;15.30;42.10
8953;DHT22;4511;50.890;8.054;2023-09-19T08:38:18;15.30;1.00
8953;DHT22;4511;50.890;8.054;2023-09-19T08:40:45;15.10;99.90
8953;DHT22;4511;50.890;8.054;2023-09-19T08:43:12;15.60;66.80
8953;DHT22;4511;50.890;8.054;2023-09-19T08:45:39;15.40;96.60
8953;DHT22;4511;50.890;8.054;2023-09-19T08:48:17;15.60;57.10
8953;DHT22;4511;50.890;8.054;2023-09-19T08:50:49;15.70;1.00
8953;DHT22;4511;50.890;8.054;2023-09-19T08:53:22;15.70;1.00
8953;DHT22;4511;50.890;8.054;2023-09-19T08:55:53;15.90;1.00
8953;DHT22;4511;50.890;8.054;2023-09-19T08:58:21;15.70;1.00
8953;DHT22;4511;50.890;8.054;2023-09-19T09:00:53;15.90;1.00
8953;DHT22;4511;50.890;8.054;2023-09-19T09:03:21;15.80;1.00
8953;DHT22;4511;50.890;8.054;2023-09-19T09:05:50;15.90;99.90
8953;DHT22;4511;50.890;8.054;2023-09-19T09:08:19;16.10;99.90
8953;DHT22;4511;50.890;8.054;2023-09-19T09:10:47;16.20;99.90
8953;DHT22;4511;50.890;8.054;2023-09-19T09:13:14;15.90;99.90
8953;DHT22;4511;50.890;8.054;2023-09-19T09:15:41;16.10;99.90
8953;DHT22;4511;50.890;8.054;2023-09-19T09:18:10;15.90;99.90
8953;DHT22;4511;50.890;8.054;2023-09-19T09:20:37;16.20;99.90
8953;DHT22;4511;50.890;8.054;2023-09-19T09:23:04;16.30;99.90
8953;DHT22;4511;50.890;8.054;2023-09-19T09:25:49;16.60;88.70
8953;DHT22;4511;50.890;8.054;2023-09-19T09:28:21;16.80;1.00
8953;DHT22;4511;50.890;8.054;2023-09-19T09:30:48;16.60;1.00
8953;DHT22;4511;50.890;8.054;2023-09-19T09:33:15;16.60;1.00
8953;DHT22;4511;50.890;8.054;2023-09-19T09:35:50;16.60;1.00
8953;DHT22;4511;50.890;8.054;2023-09-19T09:38:22;16.80;1.00
8953;DHT22;4511;50.890;8.054;2023-09-19T09:40:54;16.70;1.00
8953;DHT22;4511;50.890;8.054;2023-09-19T09:43:26;16.80;1.00
8953;DHT22;4511;50.890;8.054;2023-09-19T09:46:13;16.50;1.00
8953;DHT22;4511;50.890;8.054;2023-09-19T09:48:59;16.40;1.00
8953;DHT22;4511;50.890;8.054;2023-09-19T09:51:42;16.20;1.00
8953;DHT22;4511;50.890;8.054;2023-09-19T09:54:11;16.30;1.00
8953;DHT22;4511;50.890;8.054;2023-09-19T09:56:55;16.70;1.00
8953;DHT22;4511;50.890;8.054;2023-09-19T09:59:44;17.00;1.00
8953;DHT22;4511;50.890;8.054;2023-09-19T10:02:13;16.40;1.00
8953;DHT22;4511;50.890;8.054;2023-09-19T10:04:40;16.80;1.00
8953;DHT22;4511;50.890;8.054;2023-09-19T10:07:28;16.50;1.00
8953;DHT22;4511;50.890;8.054;2023-09-19T10:09:58;16.90;1.00
8953;DHT22;4511;50.890;8.054;2023-09-19T10:12:31;17.20;1.00
8953;DHT22;4511;50.890;8.054;2023-09-19T10:15:00;17.40;99.90
8953;DHT22;4511;50.890;8.054;2023-09-19T10:17:29;17.10;99.90
8953;DHT22;4511;50.890;8.054;2023-09-19T10:19:58;17.30;99.90
8953;DHT22;4511;50.890;8.054;2023-09-19T10:22:32;17.50;99.90
8953;DHT22;4511;50.890;8.054;2023-09-19T10:25:01;17.70;99.90
8953;DHT22;4511;50.890;8.054;2023-09-19T10:27:30;17.80;99.90
8953;DHT22;4511;50.890;8.054;2023-09-19T10:30:05;17.80;99.90
8953;DHT22;4511;50.890;8.054;2023-09-19T10:32:35;17.90;99.90
8953;DHT22;4511;50.890;8.054;2023-09-19T10:35:02;17.90;99.90
8953;DHT22;4511;50.890;8.054;2023-09-19T10:37:32;17.90;99.90
8953;DHT22;4511;50.890;8.054;2023-09-19T10:40:00;18.10;99.90
8953;DHT22;4511;50.890;8.054;2023-09-19T10:42:27;18.00;99.90
8953;DHT22;4511;50.890;8.054;2023-09-19T10:44:58;18.30;99.90
8953;DHT22;4511;50.890;8.054;2023-09-19T10:47:26;18.40;99.90
8953;DHT22;4511;50.890;8.054;2023-09-19T10:49:53;18.50;99.90
8953;DHT22;4511;50.890;8.054;2023-09-19T10:52:22;18.60;99.90
8953;DHT22;4511;50.890;8.054;2023-09-19T10:54:51;18.60;99.90
8953;DHT22;4511;50.890;8.054;2023-09-19T10:57:23;18.50;99.90
8953;DHT22;4511;50.890;8.054;2023-09-19T11:00:06;18.70;99.90
8953;DHT22;4511;50.890;8.054;2023-09-19T11:03:18;18.60;91.40
8953;DHT22;4511;50.890;8.054;2023-09-19T11:06:08;18.50;89.80
8953;DHT22;4511;50.890;8.054;2023-09-19T11:08:58;18.50;67.30
8953;DHT22;4511;50.890;8.054;2023-09-19T11:11:53;18.40;8.30
8953;DHT22;4511;50.890;8.054;2023-09-19T11:14:41;18.10;17.40
8953;DHT22;4511;50.890;8.054;2023-09-19T11:17:43;17.90;27.40
8953;DHT22;4511;50.890;8.054;2023-09-19T11:20:20;18.20;35.30
8953;DHT22;4511;50.890;8.054;2023-09-19T11:23:22;18.40;24.50
8953;DHT22;4511;50.890;8.054;2023-09-19T11:25:52;18.50;17.40
8953;DHT22;4511;50.890;8.054;2023-09-19T11:28:33;17.90;23.00
8953;DHT22;4511;50.890;8.054;2023-09-19T11:34:40;17.90;11.20
8953;DHT22;4511;50.890;8.054;2023-09-19T11:40:32;18.10;19.30
8953;DHT22;4511;50.890;8.054;2023-09-19T11:42:59;18.30;1.00
8953;DHT22;4511;50.890;8.054;2023-09-19T11:48:32;18.20;1.00
8953;DHT22;4511;50.890;8.054;2023-09-19T11:51:16;18.40;8.50
8953;DHT22;4511;50.890;8.054;2023-09-19T11:53:48;18.50;1.00
8953;DHT22;4511;50.890;8.054;2023-09-19T11:56:16;18.50;1.00
8953;DHT22;4511;50.890;8.054;2023-09-19T11:58:44;17.90;1.00
8953;DHT22;4511;50.890;8.054;2023-09-19T12:01:13;18.10;1.00
8953;DHT22;4511;50.890;8.054;2023-09-19T12:03:47;18.10;1.00
8953;DHT22;4511;50.890;8.054;2023-09-19T12:06:16;18.00;1.00
8953;DHT22;4511;50.890;8.054;2023-09-19T12:08:44;18.10;1.00
8953;DHT22;4511;50.890;8.054;2023-09-19T12:11:13;18.40;1.00
8953;DHT22;4511;50.890;8.054;2023-09-19T12:13:42;18.50;1.00
8953;DHT22;4511;50.890;8.054;2023-09-19T12:16:14;18.20;1.00
8953;DHT22;4511;50.890;8.054;2023-09-19T12:18:42;18.50;1.00
8953;DHT22;4511;50.890;8.054;2023-09-19T12:21:26;18.20;1.00
8953;DHT22;4511;50.890;8.054;2023-09-19T12:24:05;18.30;1.00
8953;DHT22;4511;50.890;8.054;2023-09-19T12:26:39;18.40;1.00
8953;DHT22;4511;50.890;8.054;2023-09-19T12:29:14;18.90;1.00
8953;DHT22;4511;50.890;8.054;2023-09-19T12:31:48;19.10;1.00
8953;DHT22;4511;50.890;8.054;2023-09-19T12:34:20;19.10;1.00
8953;DHT22;4511;50.890;8.054;2023-09-19T12:36:49;18.90;1.00
8953;DHT22;4511;50.890;8.054;2023-09-19T12:39:30;19.20;1.00
8953;DHT22;4511;50.890;8.054;2023-09-19T12:41:57;18.90;1.00
8953;DHT22;4511;50.890;8.054;2023-09-19T12:44:24;18.70;1.00
8953;DHT22;4511;50.890;8.054;2023-09-19T12:46:51;18.80;1.00
8953;DHT22;4511;50.890;8.054;2023-09-19T12:49:20;19.00;1.00
8953;DHT22;4511;50.890;8.054;2023-09-19T12:51:49;19.10;1.00
8953;DHT22;4511;50.890;8.054;2023-09-19T12:54:21;19.00;1.00
8953;DHT22;4511;50.890;8.054;2023-09-19T12:56:48;19.50;1.00
8953;DHT22;4511;50.890;8.054;2023-09-19T12:59:16;19.90;1.00
8953;DHT22;4511;50.890;8.054;2023-09-19T13:01:43;19.50;1.00
8953;DHT22;4511;50.890;8.054;2023-09-19T13:04:16;19.40;1.00
8953;DHT22;4511;50.890;8.054;2023-09-19T13:06:45;19.60;1.00
8953;DHT22;4511;50.890;8.054;2023-09-19T13:09:16;19.60;1.00
8953;DHT22;4511;50.890;8.054;2023-09-19T13:11:43;19.70;1.00
8953;DHT22;4511;50.890;8.054;2023-09-19T13:14:15;19.90;1.00
8953;DHT22;4511;50.890;8.054;2023-09-19T13:16:55;20.00;1.00
8953;DHT22;4511;50.890;8.054;2023-09-19T13:19:39;20.20;1.00
8953;DHT22;4511;50.890;8.054;2023-09-19T13:22:40;20.90;1.00
8953;DHT22;4511;50.890;8.054;2023-09-19T13:27:40;22.10;1.00
8953;DHT22;4511;50.890;8.054;2023-09-19T13:30:08;22.10;1.00
8953;DHT22;4511;50.890;8.054;2023-09-19T13:32:35;22.40;1.00
8953;DHT22;4511;50.890;8.054;2023-09-19T13:35:03;22.40;1.00
8953;DHT22;4511;50.890;8.054;2023-09-19T13:37:33;22.90;1.00
8953;DHT22;4511;50.890;8.054;2023-09-19T13:40:01;23.00;1.00
8953;DHT22;4511;50.890;8.054;2023-09-19T13:42:31;23.50;1.00
8953;DHT22;4511;50.890;8.054;2023-09-19T13:44:58;23.90;1.00
8953;DHT22;4511;50.890;8.054;2023-09-19T13:47:25;24.10;1.00
8953;DHT22;4511;50.890;8.054;2023-09-19T13:49:52;24.10;1.00
8953;DHT22;4511;50.890;8.054;2023-09-19T13:52:19;23.20;1.00
8953;DHT22;4511;50.890;8.054;2023-09-19T13:54:47;23.20;1.00
8953;DHT22;4511;50.890;8.054;2023-09-19T13:57:13;23.60;1.00
8953;DHT22;4511;50.890;8.054;2023-09-19T13:59:42;24.20;1.00
8953;DHT22;4511;50.890;8.054;2023-09-19T14:02:08;24.20;1.00
8953;DHT22;4511;50.890;8.054;2023-09-19T14:04:35;23.60;1.00
8953;DHT22;4511;50.890;8.054;2023-09-19T14:07:02;23.30;1.00
8953;DHT22;4511;50.890;8.054;2023-09-19T14:09:29;23.20;1.00
8953;DHT22;4511;50.890;8.054;2023-09-19T14:11:56;24.20;1.00
8953;DHT22;4511;50.890;8.054;2023-09-19T14:14:23;24.00;1.00
8953;DHT22;4511;50.890;8.054;2023-09-19T14:16:51;24.00;1.00
8953;DHT22;4511;50.890;8.054;2023-09-19T14:19:18;24.40;1.00
8953;DHT22;4511;50.890;8.054;2023-09-19T14:21:45;25.20;1.00
8953;DHT22;4511;50.890;8.054;2023-09-19T14:24:16;24.40;1.00
8953;DHT22;4511;50.890;8.054;2023-09-19T14:26:43;25.00;1.00
8953;DHT22;4511;50.890;8.054;2023-09-19T14:29:10;24.70;1.00
8953;DHT22;4511;50.890;8.054;2023-09-19T14:31:37;23.60;1.00
8953;DHT22;4511;50.890;8.054;2023-09-19T14:34:07;23.20;1.00
8953;DHT22;4511;50.890;8.054;2023-09-19T14:36:35;23.90;1.00
8953;DHT22;4511;50.890;8.054;2023-09-19T14:39:02;24.20;1.00
8953;DHT22;4511;50.890;8.054;2023-09-19T14:41:29;24.60;1.00
8953;DHT22;4511;50.890;8.054;2023-09-19T14:43:57;24.20;1.00
8953;DHT22;4511;50.890;8.054;2023-09-19T14:46:24;24.00;1.00
8953;DHT22;4511;50.890;8.054;2023-09-19T14:48:51;22.90;1.00
8953;DHT22;4511;50.890;8.054;2023-09-19T14:51:19;22.50;1.00
8953;DHT22;4511;50.890;8.054;2023-09-19T14:53:46;21.40;1.00
8953;DHT22;4511;50.890;8.054;2023-09-19T14:56:14;21.20;1.00
8953;DHT22;4511;50.890;8.054;2023-09-19T14:58:44;21.80;1.00
8953;DHT22;4511;50.890;8.054;2023-09-19T15:01:13;21.50;1.00
8953;DHT22;4511;50.890;8.054;2023-09-19T15:03:41;22.10;1.00
8953;DHT22;4511;50.890;8.054;2023-09-19T15:06:10;22.70;1.00
8953;DHT22;4511;50.890;8.054;2023-09-19T15:08:41;23.40;1.00
8953;DHT22;4511;50.890;8.054;2023-09-19T15:11:11;24.20;1.00
8953;DHT22;4511;50.890;8.054;2023-09-19T15:13:38;24.10;1.00
8953;DHT22;4511;50.890;8.054;2023-09-19T15:16:07;24.80;1.00
8953;DHT22;4511;50.890;8.054;2023-09-19T15:18:35;25.50;1.00
8953;DHT22;4511;50.890;8.054;2023-09-19T15:21:03;25.80;1.00
8953;DHT22;4511;50.890;8.054;2023-09-19T15:23:30;25.40;1.00
8953;DHT22;4511;50.890;8.054;2023-09-19T15:25:59;24.60;1.00
8953;DHT22;4511;50.890;8.054;2023-09-19T15:28:26;23.40;1.00
8953;DHT22;4511;50.890;8.054;2023-09-19T15:30:57;23.60;1.00
8953;DHT22;4511;50.890;8.054;2023-09-19T15:33:24;23.40;1.00
8953;DHT22;4511;50.890;8.054;2023-09-19T15:35:52;23.10;1.00
8953;DHT22;4511;50.890;8.054;2023-09-19T15:38:19;22.80;1.00
8953;DHT22;4511;50.890;8.054;2023-09-19T15:40:46;22.40;1.00
8953;DHT22;4511;50.890;8.054;2023-09-19T15:43:15;22.10;1.00
8953;DHT22;4511;50.890;8.054;2023-09-19T15:45:42;21.40;1.00
8953;DHT22;4511;50.890;8.054;2023-09-19T15:48:09;22.60;1.00
8953;DHT22;4511;50.890;8.054;2023-09-19T15:50:36;23.70;1.00
8953;DHT22;4511;50.890;8.054;2023-09-19T15:53:03;24.30;1.00
8953;DHT22;4511;50.890;8.054;2023-09-19T15:55:29;24.60;1.00
8953;DHT22;4511;50.890;8.054;2023-09-19T15:57:57;24.40;1.00
8953;DHT22;4511;50.890;8.054;2023-09-19T16:00:25;25.70;1.00
8953;DHT22;4511;50.890;8.054;2023-09-19T16:02:52;25.60;1.00
8953;DHT22;4511;50.890;8.054;2023-09-19T16:05:20;24.50;1.00
8953;DHT22;4511;50.890;8.054;2023-09-19T16:07:46;24.30;1.00
8953;DHT22;4511;50.890;8.054;2023-09-19T16:10:13;24.10;1.00
8953;DHT22;4511;50.890;8.054;2023-09-19T16:12:40;24.60;1.00
8953;DHT22;4511;50.890;8.054;2023-09-19T16:15:07;24.60;1.00
8953;DHT22;4511;50.890;8.054;2023-09-19T16:17:38;24.10;1.00
8953;DHT22;4511;50.890;8.054;2023-09-19T16:20:06;23.00;1.00
8953;DHT22;4511;50.890;8.054;2023-09-19T16:22:38;22.60;1.00
8953;DHT22;4511;50.890;8.054;2023-09-19T16:25:05;22.40;1.00
8953;DHT22;4511;50.890;8.054;2023-09-19T16:27:32;22.20;1.00
8953;DHT22;4511;50.890;8.054;2023-09-19T16:29:59;22.50;1.00
8953;DHT22;4511;50.890;8.054;2023-09-19T16:32:26;22.90;1.00
8953;DHT22;4511;50.890;8.054;2023-09-19T16:34:55;22.70;1.00
8953;DHT22;4511;50.890;8.054;2023-09-19T16:37:21;22.60;1.00
8953;DHT22;4511;50.890;8.054;2023-09-19T16:39:48;22.10;1.00
8953;DHT22;4511;50.890;8.054;2023-09-19T16:42:15;21.90;1.00